Terminal Aerodrome Forecast
Issued by NWS

Home | Current Version | Previous Version | Text Only | Print | Product List | Glossary On
Versions: 1 2 3 4 5 6 7 8 9 10 11 12 13 14 15 16 17 18 19 20 21 22 23 24 25 26
000
FTUS46 KSGX 230500
TAFSAN
TAF
KSAN 230520Z 2306/2412 VRB05KT P6SM SCT015
      TEMPO 2309/2313 OVC010
     FM231300 VRB04KT P6SM SCT015
     FM231800 30011KT P6SM FEW020
     FM240400 VRB05KT P6SM FEW010
     FM241000 VRB06KT P6SM BKN010=

USA.gov is the U.S. government's official web portal to all federal, state and local government web resources and services.